Woodland, Mississippi
Current Conditions -  °F | °C
As of 11:35 PM on Wednesday 26 Nov 2014 (Local Time) from KSTF Reporting Station
NA  
Wind Chill: 34°   Ceiling: NA
Heat Index: 34°   Visibility: NA
Dew Point: 32°   Wind: 0mph
Humidity: 93%   Direction: NA
Pressure: 30.21"   Gusts: NA
Location:  33.78°N, 89.05°W
Report Text: KSTF 270535Z AUTO 00000KT 01/00 A3021 RMK AO2 PWINO
Loading
Personal Weather Stations






























Interactive Weather Map New forecast layout! Learn more

10-Day Weather Forecast

Advertisements
Track Severe Weather on mobile